Time;durP1;ratioP1;P1;durP2;ratioP2;P2;SDS_P1;SDS_P2;PMS_P1;PMS_P2;Temp;Humidity;BMP_temperature;BMP_pressure;BME280_temperature;BME280_humidity;BME280_pressure;Samples;Min_cycle;Max_cycle;Signal;HPM_P1;HPM_P2
2023/01/16 00:01:27;;;;;;;4.13;2.80;;;-0.80;99.90;;;;;;5021035;28;20037;-69
2023/01/16 00:03:54;;;;;;;4.15;2.63;;;-0.80;99.90;;;;;;5021491;28;20056;-68
2023/01/16 00:06:21;;;;;;;4.00;2.58;;;-0.80;99.90;;;;;;5030150;28;20597;-68
2023/01/16 00:08:48;;;;;;;3.03;1.85;;;-0.80;99.90;;;;;;5020908;28;20068;-68
2023/01/16 00:11:15;;;;;;;2.35;1.92;;;-0.80;99.90;;;;;;5021832;28;20447;-69
2023/01/16 00:13:42;;;;;;;3.35;2.65;;;-0.80;99.90;;;;;;5019402;28;20079;-68
2023/01/16 00:16:09;;;;;;;;;;;-0.80;99.90;;;;;;5020858;28;20388;-68
2023/01/16 00:18:36;;;;;;;3.10;2.28;;;-0.80;99.90;;;;;;5025426;28;20358;-68
2023/01/16 00:21:02;;;;;;;3.75;2.60;;;-0.80;99.90;;;;;;5025635;28;20037;-68
2023/01/16 00:23:29;;;;;;;3.95;2.80;;;-0.80;99.90;;;;;;5025323;28;20372;-68
2023/01/16 00:25:56;;;;;;;3.60;2.42;;;-0.80;99.90;;;;;;5022317;28;20221;-68
2023/01/16 00:28:23;;;;;;;;;;;-0.80;99.90;;;;;;5027854;28;20279;-68
2023/01/16 00:30:49;;;;;;;2.28;2.08;;;-0.80;99.90;;;;;;5023946;28;20244;-68
2023/01/16 00:33:18;;;;;;;6.45;2.15;;;-0.80;99.90;;;;;;5023110;28;20051;-68
2023/01/16 00:35:45;;;;;;;3.20;2.30;;;-0.80;99.90;;;;;;5033814;28;20053;-68
2023/01/16 00:38:12;;;;;;;2.80;2.30;;;-0.80;99.90;;;;;;5026234;28;20129;-68
2023/01/16 00:40:39;;;;;;;4.15;1.95;;;-0.80;99.90;;;;;;5025193;28;20131;-68
2023/01/16 00:43:06;;;;;;;2.67;2.22;;;-0.80;99.90;;;;;;5025602;28;20052;-69
2023/01/16 00:45:33;;;;;;;2.75;1.83;;;-0.80;99.90;;;;;;5025582;28;20076;-68
2023/01/16 00:47:59;;;;;;;;;;;-0.80;99.90;;;;;;5022078;28;20055;-67
2023/01/16 00:50:26;;;;;;;11.98;4.45;;;-0.80;99.90;;;;;;5024941;28;20547;-66
2023/01/16 00:52:53;;;;;;;2.20;1.52;;;-0.90;99.90;;;;;;5026899;28;20084;-68
2023/01/16 00:55:19;;;;;;;;;;;-0.90;99.90;;;;;;5026291;28;20113;-67
2023/01/16 00:57:46;;;;;;;2.83;1.73;;;-0.90;99.90;;;;;;5024880;28;20736;-68
2023/01/16 01:00:13;;;;;;;;;;;-0.90;99.90;;;;;;5023459;28;20041;-68
2023/01/16 01:02:39;;;;;;;2.35;1.65;;;-0.90;99.90;;;;;;5025606;28;19928;-68
2023/01/16 01:05:06;;;;;;;4.47;1.70;;;-0.90;99.90;;;;;;5025980;28;20033;-68
2023/01/16 01:07:33;;;;;;;2.45;1.70;;;-0.90;99.90;;;;;;5023408;28;20059;-67
2023/01/16 01:10:00;;;;;;;;;;;-0.90;99.90;;;;;;5022900;28;20129;-68
2023/01/16 01:12:27;;;;;;;1.60;1.27;;;-0.90;99.90;;;;;;5025227;28;20214;-68
2023/01/16 01:14:53;;;;;;;;;;;-0.90;99.90;;;;;;5022408;28;20041;-69
2023/01/16 01:17:20;;;;;;;1.55;1.00;;;-0.80;99.90;;;;;;5023274;28;19939;-66
2023/01/16 01:19:47;;;;;;;;;;;-0.80;99.90;;;;;;5025730;28;20043;-67
2023/01/16 01:22:15;;;;;;;9.23;2.35;;;-0.80;99.90;;;;;;5024107;28;20168;-66
2023/01/16 01:24:43;;;;;;;5.38;1.10;;;-0.70;99.90;;;;;;5024752;28;20542;-67
2023/01/16 01:27:10;;;;;;;2.80;0.90;;;-0.70;99.90;;;;;;5030976;28;20048;-67
2023/01/16 01:29:37;;;;;;;1.58;1.02;;;-0.70;99.90;;;;;;5024647;28;20316;-66
2023/01/16 01:32:05;;;;;;;0.82;0.70;;;-0.70;99.90;;;;;;5023603;28;20516;-66
2023/01/16 01:34:33;;;;;;;1.65;0.80;;;-0.80;99.90;;;;;;5023941;28;20079;-67
2023/01/16 01:37:02;;;;;;;11.52;2.80;;;-0.80;99.90;;;;;;5023834;28;20466;-67
2023/01/16 01:39:29;;;;;;;3.38;0.82;;;-0.80;99.90;;;;;;5022738;28;20073;-67
2023/01/16 01:42:42;;;;;;;2.20;0.90;;;-0.80;99.90;;;;;;5022989;28;21007;-67
2023/01/16 01:44:54;;;;;;;0.68;0.68;;;-0.90;99.90;;;;;;5023920;28;20128;-66
2023/01/16 01:47:26;;;;;;;3.05;0.70;;;-0.90;99.90;;;;;;5023511;28;20055;-67
2023/01/16 01:49:55;;;;;;;2.72;1.35;;;-0.90;99.90;;;;;;5025105;28;20522;-66
2023/01/16 01:52:23;;;;;;;2.50;0.80;;;-0.90;99.90;;;;;;5022425;28;20375;-67
2023/01/16 01:54:56;;;;;;;1.23;0.60;;;-0.90;99.90;;;;;;5026302;28;20049;-66
2023/01/16 01:57:27;;;;;;;1.17;0.70;;;-0.90;99.90;;;;;;5031520;28;20055;-67
2023/01/16 02:00:14;;;;;;;0.65;0.65;;;-0.90;99.90;;;;;;5023357;28;20032;-67
2023/01/16 02:03:06;;;;;;;2.40;0.63;;;-0.90;99.90;;;;;;5024878;28;20657;-67
2023/01/16 02:05:49;;;;;;;2.25;1.13;;;-0.90;99.90;;;;;;5024213;28;20712;-67
2023/01/16 02:08:18;;;;;;;9.07;1.65;;;-0.90;99.90;;;;;;5035974;28;20455;-67
2023/01/16 02:11:02;;;;;;;5.80;0.88;;;-0.90;99.90;;;;;;5023825;28;20052;-66
2023/01/16 02:13:29;;;;;;;3.53;0.80;;;-1.00;99.90;;;;;;5019762;28;20052;-67
2023/01/16 02:22:02;;;;;;;1.00;0.52;;;-1.00;99.90;;;;;;5037926;28;20076;-67
2023/01/16 02:24:47;;;;;;;4.32;1.50;;;-1.00;99.90;;;;;;5023657;28;20052;-67
2023/01/16 02:27:48;;;;;;;1.50;0.35;;;-1.00;99.90;;;;;;5023219;28;20036;-67
2023/01/16 02:30:36;;;;;;;3.40;0.60;;;-1.00;99.90;;;;;;5020112;28;20102;-67
2023/01/16 02:33:25;;;;;;;1.02;0.80;;;-1.00;99.90;;;;;;5024450;28;20098;-67
2023/01/16 02:35:59;;;;;;;1.05;0.70;;;-1.00;99.90;;;;;;5030108;28;20126;-70
2023/01/16 02:38:45;;;;;;;4.78;0.63;;;-1.00;99.90;;;;;;5023164;28;20134;-67
2023/01/16 02:41:29;;;;;;;8.18;0.80;;;-1.00;99.90;;;;;;5024671;28;20134;-66
2023/01/16 02:44:07;;;;;;;2.35;0.80;;;-0.90;99.90;;;;;;5022016;28;20041;-67
2023/01/16 02:46:54;;;;;;;5.88;1.05;;;-0.90;99.90;;;;;;5023355;28;20057;-67
2023/01/16 02:49:36;;;;;;;0.40;0.40;;;-0.90;99.90;;;;;;5026465;28;20284;-67
2023/01/16 02:52:17;;;;;;;0.95;0.50;;;-0.90;99.90;;;;;;5023754;28;20138;-67
2023/01/16 02:55:03;;;;;;;5.10;0.52;;;-0.90;99.90;;;;;;5022325;28;20044;-68
2023/01/16 02:57:36;;;;;;;3.33;0.85;;;-0.90;99.90;;;;;;5023811;28;20036;-67
2023/01/16 03:00:05;;;;;;;1.50;0.60;;;-0.90;99.90;;;;;;5021398;28;20104;-70
2023/01/16 03:02:32;;;;;;;4.25;0.68;;;-1.00;99.90;;;;;;5022817;28;20061;-70
2023/01/16 03:04:59;;;;;;;0.50;0.50;;;-1.00;99.90;;;;;;5024008;28;20037;-68
2023/01/16 03:07:41;;;;;;;0.52;0.50;;;-1.00;99.90;;;;;;5023123;28;20842;-68
2023/01/16 03:10:14;;;;;;;1.55;0.50;;;-1.10;99.90;;;;;;5021364;28;20633;-67
2023/01/16 03:12:56;;;;;;;1.13;0.68;;;-1.10;99.90;;;;;;5021634;28;20056;-67
2023/01/16 03:15:44;;;;;;;2.40;0.80;;;-1.10;99.90;;;;;;5020931;28;20069;-67
2023/01/16 03:18:33;;;;;;;6.03;0.85;;;-1.20;99.90;;;;;;5021867;28;20296;-66
2023/01/16 03:21:10;;;;;;;1.55;0.50;;;-1.20;99.90;;;;;;5023449;28;20261;-68
2023/01/16 03:23:53;;;;;;;2.22;0.65;;;-1.20;99.90;;;;;;5018820;28;20048;-68
2023/01/16 03:26:33;;;;;;;4.18;0.93;;;-1.30;99.90;;;;;;5021705;28;20271;-68
2023/01/16 03:29:17;;;;;;;0.38;0.35;;;-1.30;99.90;;;;;;5018588;28;20037;-66
2023/01/16 03:31:57;;;;;;;0.70;0.30;;;-1.30;99.90;;;;;;5022119;28;20461;-66
2023/01/16 03:34:30;;;;;;;1.98;0.45;;;-1.30;99.90;;;;;;5022464;28;20575;-68
2023/01/16 03:37:09;;;;;;;4.63;0.95;;;-1.30;99.90;;;;;;5018351;28;20037;-67
2023/01/16 03:39:42;;;;;;;0.40;0.38;;;-1.40;99.90;;;;;;5021936;28;20445;-68
2023/01/16 03:42:15;;;;;;;4.20;0.50;;;-1.40;99.90;;;;;;5031497;28;20173;-67
2023/01/16 03:44:49;;;;;;;1.00;0.47;;;-1.40;99.90;;;;;;5021234;28;20797;-68
2023/01/16 03:47:23;;;;;;;2.85;0.52;;;-1.30;99.90;;;;;;5022230;28;20375;-67
2023/01/16 03:49:56;;;;;;;1.17;0.40;;;-1.30;99.90;;;;;;5022327;28;20288;-70
2023/01/16 03:52:26;;;;;;;4.25;0.50;;;-1.30;99.90;;;;;;5025999;28;20295;-67
2023/01/16 03:55:05;;;;;;;1.77;0.60;;;-1.30;99.90;;;;;;5018062;28;20109;-69
2023/01/16 03:57:38;;;;;;;0.98;0.80;;;-1.30;99.90;;;;;;5021405;28;20314;-68
2023/01/16 04:00:06;;;;;;;0.30;0.30;;;-1.30;99.90;;;;;;5019628;28;20445;-68
2023/01/16 04:02:46;;;;;;;4.47;0.60;;;-1.30;99.90;;;;;;5022267;28;20222;-67
2023/01/16 04:05:28;;;;;;;1.02;0.47;;;-1.40;99.90;;;;;;5035977;28;20040;-69
2023/01/16 04:08:03;;;;;;;0.30;0.30;;;-1.40;99.90;;;;;;5018305;28;20037;-69
2023/01/16 04:10:41;;;;;;;1.30;0.57;;;-1.40;99.90;;;;;;5023087;28;20212;-68
2023/01/16 04:13:25;;;;;;;0.50;0.40;;;-1.40;99.90;;;;;;5022625;28;20458;-68
2023/01/16 04:15:55;;;;;;;1.70;0.65;;;-1.40;99.90;;;;;;5021344;28;20045;-69
2023/01/16 04:18:30;;;;;;;1.13;0.60;;;-1.40;99.90;;;;;;5018819;28;20506;-67
2023/01/16 04:20:57;;;;;;;1.17;0.52;;;-1.40;99.90;;;;;;5024382;28;20435;-68
2023/01/16 04:23:24;;;;;;;5.63;0.57;;;-1.40;99.90;;;;;;5022019;28;20578;-68
2023/01/16 04:25:51;;;;;;;0.40;0.32;;;-1.50;99.90;;;;;;5024428;28;20223;-68
2023/01/16 04:28:17;;;;;;;;;;;-1.50;99.90;;;;;;5022278;28;20135;-68
2023/01/16 04:30:44;;;;;;;2.35;0.73;;;-1.50;99.90;;;;;;5023527;28;19931;-68
2023/01/16 04:33:11;;;;;;;1.98;0.40;;;-1.50;99.90;;;;;;5027757;28;20611;-68
2023/01/16 04:35:37;;;;;;;4.22;0.70;;;-1.60;99.90;;;;;;5022257;28;20057;-68
2023/01/16 04:38:04;;;;;;;;;;;-1.60;99.90;;;;;;5022565;28;20128;-69
2023/01/16 04:40:31;;;;;;;1.33;0.32;;;-1.50;99.90;;;;;;5024543;28;20449;-68
2023/01/16 04:42:57;;;;;;;;;;;-1.50;99.90;;;;;;5024041;28;20161;-67
2023/01/16 04:45:24;;;;;;;2.88;0.68;;;-1.50;99.90;;;;;;5022245;28;19934;-68
2023/01/16 04:47:52;;;;;;;0.50;0.50;;;-1.40;99.90;;;;;;5021488;28;20037;-68
2023/01/16 04:50:19;;;;;;;0.68;0.50;;;-1.40;99.90;;;;;;5021553;28;20444;-67
2023/01/16 04:52:46;;;;;;;;;;;-1.40;99.90;;;;;;5023510;28;20057;-67
2023/01/16 04:55:13;;;;;;;0.55;0.40;;;-1.40;99.90;;;;;;5023415;28;20441;-66
2023/01/16 04:57:40;;;;;;;0.43;0.40;;;-1.40;99.90;;;;;;5022804;28;20482;-69
2023/01/16 05:00:08;;;;;;;0.50;0.47;;;-1.30;99.90;;;;;;5024288;28;20102;-68
2023/01/16 05:02:35;;;;;;;0.47;0.35;;;-1.40;99.90;;;;;;5025516;28;20561;-69
2023/01/16 05:05:02;;;;;;;1.50;0.70;;;-1.30;99.90;;;;;;5027531;28;20131;-69
2023/01/16 05:07:29;;;;;;;0.68;0.50;;;-1.40;99.90;;;;;;5032080;28;20052;-69
2023/01/16 05:09:55;;;;;;;;;;;-1.30;99.90;;;;;;5027746;28;20049;-66
2023/01/16 05:12:22;;;;;;;1.42;1.00;;;-1.30;99.90;;;;;;5022895;28;19924;-66
2023/01/16 05:14:49;;;;;;;2.65;0.50;;;-1.30;99.90;;;;;;5025982;28;20153;-64
2023/01/16 05:17:16;;;;;;;0.43;0.43;;;-1.30;99.90;;;;;;5025518;28;20052;-66
2023/01/16 05:19:42;;;;;;;;;;;-1.30;99.90;;;;;;5024073;28;20052;-68
2023/01/16 05:22:09;;;;;;;0.38;0.38;;;-1.30;99.90;;;;;;5027060;28;20501;-66
2023/01/16 05:24:35;;;;;;;;;;;-1.30;99.90;;;;;;5024507;28;20347;-67
2023/01/16 05:27:02;;;;;;;2.35;1.33;;;-1.30;99.90;;;;;;5024226;28;19929;-68
2023/01/16 05:29:29;;;;;;;3.08;2.00;;;-1.30;99.90;;;;;;5024269;28;20057;-67
2023/01/16 05:31:56;;;;;;;;;;;-1.30;99.90;;;;;;5026198;28;20611;-67
2023/01/16 05:34:22;;;;;;;0.82;0.25;;;-1.30;99.90;;;;;;5025986;28;19952;-68
2023/01/16 05:36:49;;;;;;;;;;;-1.40;99.90;;;;;;5025340;28;20539;-55
2023/01/16 05:39:16;;;;;;;2.08;0.60;;;-1.40;99.90;;;;;;5026323;28;20013;-55
2023/01/16 05:41:43;;;;;;;1.63;0.60;;;-1.40;99.90;;;;;;5025773;28;20537;-55
2023/01/16 05:44:09;;;;;;;0.73;0.50;;;-1.40;99.90;;;;;;5026521;28;20140;-55
2023/01/16 05:46:36;;;;;;;0.43;0.43;;;-1.50;99.90;;;;;;5033319;28;20296;-56
2023/01/16 05:49:03;;;;;;;3.28;0.90;;;-1.50;99.90;;;;;;5022136;28;20045;-55
2023/01/16 05:51:30;;;;;;;1.15;0.50;;;-1.50;99.90;;;;;;5025017;28;20040;-56
2023/01/16 05:53:56;;;;;;;;;;;-1.60;99.90;;;;;;5024418;28;20072;-56
2023/01/16 05:56:23;;;;;;;2.17;0.63;;;-1.60;99.90;;;;;;5023850;28;19981;-54
2023/01/16 05:58:50;;;;;;;3.92;0.82;;;-1.60;99.90;;;;;;5023924;28;20041;-56
2023/01/16 06:01:17;;;;;;;1.90;0.73;;;-1.70;99.90;;;;;;5019714;28;20056;-56
2023/01/16 06:03:43;;;;;;;2.58;0.68;;;-1.60;99.90;;;;;;5022133;28;20052;-55
2023/01/16 06:06:10;;;;;;;1.60;0.95;;;-1.60;99.90;;;;;;5026465;28;20633;-56
2023/01/16 06:08:37;;;;;;;2.03;0.60;;;-1.60;99.90;;;;;;5022051;28;20045;-55
2023/01/16 06:11:04;;;;;;;1.25;0.93;;;-1.60;99.90;;;;;;5024400;28;20193;-54
2023/01/16 06:13:31;;;;;;;1.10;0.55;;;-1.60;99.90;;;;;;5023575;28;20037;-55
2023/01/16 06:15:57;;;;;;;;;;;-1.70;99.90;;;;;;5022546;28;20048;-56
2023/01/16 06:18:24;;;;;;;0.60;0.60;;;-1.70;99.90;;;;;;5022093;28;19925;-54
2023/01/16 06:20:51;;;;;;;;;;;-1.70;99.90;;;;;;5031708;28;20048;-58
2023/01/16 06:23:18;;;;;;;2.17;1.13;;;-1.70;99.90;;;;;;5024130;28;20353;-56
2023/01/16 06:25:49;;;;;;;1.65;1.55;;;-1.70;99.90;;;;;;5024416;28;20040;-55
2023/01/16 06:28:16;;;;;;;3.17;0.80;;;-1.70;99.90;;;;;;5020507;28;20036;-54
2023/01/16 06:30:43;;;;;;;1.55;0.98;;;-1.70;99.90;;;;;;5022341;28;20200;-54
2023/01/16 06:33:09;;;;;;;1.20;0.90;;;-1.70;99.90;;;;;;5022205;28;20045;-54
2023/01/16 06:35:36;;;;;;;;;;;-1.80;99.90;;;;;;5024906;28;20044;-54
2023/01/16 06:38:03;;;;;;;2.15;0.90;;;-1.80;99.90;;;;;;5024973;28;20128;-53
2023/01/16 06:40:29;;;;;;;;;;;-1.90;99.90;;;;;;5024915;28;20630;-55
2023/01/16 06:42:56;;;;;;;1.50;1.00;;;-1.90;99.90;;;;;;5020705;28;20360;-54
2023/01/16 06:45:24;;;;;;;;;;;-1.90;99.90;;;;;;5022371;28;20060;-56
2023/01/16 06:47:52;;;;;;;3.97;1.25;;;-1.90;99.90;;;;;;5023202;28;20660;-53
2023/01/16 06:50:19;;;;;;;1.65;1.00;;;-1.90;99.90;;;;;;5022659;28;20172;-55
2023/01/16 06:52:47;;;;;;;2.33;0.98;;;-2.00;99.90;;;;;;5023890;28;20705;-55
2023/01/16 06:55:14;;;;;;;1.10;0.90;;;-2.00;99.90;;;;;;5023934;28;20697;-55
2023/01/16 06:57:44;;;;;;;1.05;0.90;;;-2.00;99.90;;;;;;5023671;28;20040;-54
2023/01/16 07:00:12;;;;;;;3.42;1.10;;;-2.00;99.90;;;;;;5023066;28;20040;-58
2023/01/16 07:02:39;;;;;;;1.63;1.00;;;-2.00;99.90;;;;;;5023889;28;20479;-55
2023/01/16 07:05:07;;;;;;;2.72;0.93;;;-2.00;99.90;;;;;;5024313;28;20037;-56
2023/01/16 07:07:34;;;;;;;1.85;1.00;;;-2.00;99.90;;;;;;5024464;28;20373;-55
2023/01/16 07:10:02;;;;;;;1.17;1.00;;;-2.00;99.90;;;;;;5024890;28;20043;-55
2023/01/16 07:12:29;;;;;;;3.15;1.80;;;-2.00;99.90;;;;;;5030756;28;20602;-56
2023/01/16 07:23:26;;;;;;;2.85;1.63;;;-1.90;99.90;;;;;;5031805;28;20145;-55
2023/01/16 07:25:55;;;;;;;7.28;2.53;;;-1.90;99.90;;;;;;5019932;28;20358;-55
2023/01/16 07:28:22;;;;;;;2.88;1.83;;;-1.90;99.90;;;;;;5021401;28;20036;-56
2023/01/16 07:30:49;;;;;;;3.13;1.80;;;-1.80;99.90;;;;;;5022367;28;20045;-55
2023/01/16 07:33:17;;;;;;;4.10;1.63;;;-1.70;99.90;;;;;;5024673;28;20098;-55
2023/01/16 07:35:45;;;;;;;1.92;1.40;;;-1.50;99.90;;;;;;5024097;28;20741;-56
2023/01/16 07:38:12;;;;;;;3.15;1.90;;;-1.20;99.90;;;;;;5021541;28;20519;-56
2023/01/16 07:40:38;;;;;;;4.07;2.10;;;-0.90;99.90;;;;;;5022311;28;20361;-54
2023/01/16 07:43:06;;;;;;;3.60;1.33;;;-0.60;99.90;;;;;;5023723;28;20433;-57
2023/01/16 07:45:33;;;;;;;4.90;1.83;;;-0.30;99.90;;;;;;5022087;28;20067;-57
2023/01/16 07:48:00;;;;;;;2.35;1.40;;;0.10;99.90;;;;;;5021610;28;20045;-54
2023/01/16 07:50:28;;;;;;;1.83;1.30;;;0.50;99.90;;;;;;5021059;28;20049;-57
2023/01/16 07:52:54;;;;;;;4.78;1.80;;;0.90;99.90;;;;;;5021588;28;20341;-55
2023/01/16 07:55:21;;;;;;;;;;;1.10;99.90;;;;;;5024317;28;20335;-55
2023/01/16 07:57:48;;;;;;;4.73;2.60;;;1.20;99.90;;;;;;5021348;28;19925;-55
2023/01/16 08:00:15;;;;;;;5.10;1.80;;;1.20;99.90;;;;;;5023097;28;20047;-56
2023/01/16 08:02:42;;;;;;;2.95;1.95;;;1.10;99.90;;;;;;5030289;28;20049;-55
2023/01/16 08:05:10;;;;;;;1.48;1.30;;;1.00;99.90;;;;;;5017409;28;20651;-56
2023/01/16 08:07:36;;;;;;;2.28;1.50;;;0.90;99.90;;;;;;5029609;28;20484;-56
2023/01/16 08:10:04;;;;;;;;;;;0.90;99.90;;;;;;5023981;28;20262;-56
2023/01/16 08:12:30;;;;;;;3.80;1.70;;;0.80;99.90;;;;;;5023436;28;20016;-56
2023/01/16 08:14:57;;;;;;;6.82;2.53;;;0.70;99.90;;;;;;5023469;28;20032;-56
2023/01/16 08:17:24;;;;;;;6.13;2.33;;;0.60;99.90;;;;;;5022738;28;20507;-55
2023/01/16 08:19:51;;;;;;;;;;;0.60;99.90;;;;;;5025601;28;20126;-55
2023/01/16 08:22:17;;;;;;;4.45;2.03;;;0.60;99.90;;;;;;5013645;28;20038;-55
2023/01/16 08:24:44;;;;;;;;;;;0.60;99.90;;;;;;5021397;28;20090;-54
2023/01/16 08:27:11;;;;;;;9.05;2.30;;;0.60;99.90;;;;;;5022514;28;20439;-55
2023/01/16 08:29:38;;;;;;;;;;;0.70;99.90;;;;;;5005715;28;21013;-53
2023/01/16 08:32:05;;;;;;;6.43;2.33;;;0.70;99.90;;;;;;5018874;28;20215;-53
2023/01/16 08:34:31;;;;;;;3.70;1.98;;;0.90;99.90;;;;;;5022335;28;20218;-55
2023/01/16 08:36:58;;;;;;;5.70;2.67;;;1.00;99.90;;;;;;5020912;28;20041;-56
2023/01/16 08:39:27;;;;;;;7.15;2.03;;;1.20;99.90;;;;;;5032799;28;20076;-54
2023/01/16 08:53:03;;;;;;;6.15;1.85;;;1.40;99.90;;;;;;5023997;28;20645;-53
2023/01/16 08:55:30;;;;;;;3.85;2.38;;;1.40;99.90;;;;;;5024976;28;20315;-54
2023/01/16 08:57:59;;;;;;;3.28;2.03;;;1.50;99.90;;;;;;5025525;28;20040;-55
2023/01/16 09:00:27;;;;;;;3.70;2.13;;;1.50;99.90;;;;;;5034024;28;20048;-55
2023/01/16 09:02:57;;;;;;;4.20;1.80;;;1.50;99.90;;;;;;5025432;28;20148;-59
2023/01/16 09:05:24;;;;;;;6.18;2.10;;;1.60;99.90;;;;;;5024017;28;20106;-62
2023/01/16 09:07:50;;;;;;;3.65;2.13;;;1.60;99.90;;;;;;5026428;28;20048;-55
2023/01/16 09:10:17;;;;;;;;;;;1.60;99.90;;;;;;5026095;28;20045;-55
2023/01/16 09:15:29;;;;;;;3.13;1.40;;;1.60;99.90;;;;;;5021765;28;20056;-55
2023/01/16 09:17:56;;;;;;;;;;;1.60;99.90;;;;;;5024406;28;20098;-53
2023/01/16 09:20:22;;;;;;;2.55;1.35;;;1.50;99.90;;;;;;5027784;28;19924;-54
2023/01/16 09:22:57;;;;;;;2.20;0.88;;;1.50;99.90;;;;;;5023677;28;20283;-55
2023/01/16 09:25:24;;;;;;;4.68;0.85;;;1.50;99.90;;;;;;5024517;28;20469;-53
2023/01/16 09:27:51;;;;;;;1.80;0.80;;;1.40;99.90;;;;;;5025484;28;20120;-54
2023/01/16 09:30:17;;;;;;;;;;;1.40;99.90;;;;;;5025673;28;20596;-54
2023/01/16 09:32:45;;;;;;;1.83;1.00;;;1.30;99.90;;;;;;5024149;28;19936;-55
2023/01/16 09:35:14;;;;;;;10.68;2.15;;;1.30;99.90;;;;;;5028043;28;20196;-54
2023/01/16 09:37:45;;;;;;;1.33;0.85;;;1.20;99.90;;;;;;5023953;28;20139;-54
2023/01/16 09:40:19;;;;;;;1.70;0.70;;;1.20;99.90;;;;;;5026517;28;20033;-59
2023/01/16 09:43:38;;;;;;;2.03;1.05;;;1.30;99.90;;;;;;5009236;28;20957;-53
2023/01/16 09:46:22;;;;;;;2.42;1.30;;;1.30;99.90;;;;;;5022385;28;20032;-54
2023/01/16 09:48:55;;;;;;;1.88;1.05;;;1.30;99.90;;;;;;5022538;28;20049;-53
2023/01/16 09:51:38;;;;;;;4.63;2.08;;;1.30;99.90;;;;;;5028196;28;20053;-54
2023/01/16 10:00:00;;;;;;;7.35;1.98;;;1.20;99.90;;;;;;5024889;28;20295;-54
2023/01/16 10:02:32;;;;;;;6.20;2.08;;;1.10;99.90;;;;;;5038111;28;20041;-57
2023/01/16 10:05:02;;;;;;;8.35;2.22;;;1.10;99.90;;;;;;5024802;28;20360;-55
2023/01/16 10:07:38;;;;;;;3.90;2.00;;;1.10;99.90;;;;;;5023045;28;20126;-54
2023/01/16 10:10:23;;;;;;;4.03;1.88;;;1.10;99.90;;;;;;5025413;28;20048;-55
2023/01/16 10:12:57;;;;;;;2.15;1.33;;;1.10;99.90;;;;;;5024085;28;20059;-54
2023/01/16 10:15:40;;;;;;;3.85;1.95;;;1.20;99.90;;;;;;5021352;28;20040;-54
2023/01/16 10:18:50;;;;;;;3.67;1.67;;;1.20;99.90;;;;;;5022995;28;20140;-54
2023/01/16 10:22:00;;;;;;;2.55;1.80;;;1.20;99.90;;;;;;5017255;28;20257;-53
2023/01/16 10:24:50;;;;;;;2.90;1.52;;;1.30;99.90;;;;;;4997576;28;20061;-53
2023/01/16 10:27:36;;;;;;;2.40;1.45;;;1.40;99.90;;;;;;5023846;28;20075;-54
2023/01/16 10:30:14;;;;;;;1.85;1.13;;;1.40;99.90;;;;;;5025977;28;20334;-54
2023/01/16 10:32:50;;;;;;;2.80;1.25;;;1.40;99.90;;;;;;5032559;28;20380;-55
2023/01/16 10:35:26;;;;;;;0.95;0.70;;;1.50;99.90;;;;;;5022067;28;20553;-54
2023/01/16 10:37:58;;;;;;;1.38;0.90;;;1.50;99.90;;;;;;5024298;28;20049;-54
2023/01/16 10:40:29;;;;;;;1.73;0.90;;;1.50;99.90;;;;;;5024719;28;20040;-55
2023/01/16 10:51:22;;;;;;;1.98;1.30;;;1.50;99.90;;;;;;5032655;28;20368;-54
2023/01/16 10:53:49;;;;;;;1.42;1.05;;;1.50;99.90;;;;;;5024101;28;20152;-56
2023/01/16 10:56:16;;;;;;;;;;;1.40;99.90;;;;;;5022912;28;20634;-55
2023/01/16 10:58:42;;;;;;;1.88;1.17;;;1.30;99.90;;;;;;5019078;28;20314;-56
2023/01/16 11:01:13;;;;;;;;;;;1.30;99.90;;;;;;5024563;28;20124;-57
2023/01/16 11:03:44;;;;;;;3.33;1.50;;;1.20;99.90;;;;;;5022950;28;20299;-57
2023/01/16 11:06:17;;;;;;;2.05;1.05;;;1.20;99.90;;;;;;5025625;28;20538;-56
2023/01/16 11:08:51;;;;;;;2.05;1.30;;;1.20;99.90;;;;;;5024170;28;20133;-56
2023/01/16 11:20:28;;;;;;;3.00;1.30;;;1.10;99.90;;;;;;5023203;28;20536;-55
2023/01/16 11:22:59;;;;;;;3.45;1.40;;;1.20;99.90;;;;;;5023498;28;20503;-55
2023/01/16 11:25:27;;;;;;;14.02;2.15;;;1.20;99.90;;;;;;5021921;28;20115;-54
2023/01/16 11:27:57;;;;;;;2.30;1.20;;;1.20;99.90;;;;;;5030214;28;20140;-56
2023/01/16 11:30:32;;;;;;;3.42;1.60;;;1.20;99.90;;;;;;5023484;28;20047;-56
2023/01/16 11:32:59;;;;;;;2.72;1.35;;;1.20;99.90;;;;;;5025326;28;20482;-54
2023/01/16 11:35:35;;;;;;;7.30;2.35;;;1.20;99.90;;;;;;5024327;28;20575;-54
2023/01/16 11:38:05;;;;;;;2.38;1.40;;;1.20;99.90;;;;;;5022291;28;20045;-54
2023/01/16 11:40:43;;;;;;;2.75;1.65;;;1.20;99.90;;;;;;5026227;28;20114;-55
2023/01/16 11:46:26;;;;;;;8.60;2.00;;;1.20;99.90;;;;;;5031525;28;20132;-55
2023/01/16 11:49:01;;;;;;;11.57;1.90;;;1.30;99.90;;;;;;5011644;28;20353;-55
2023/01/16 11:51:36;;;;;;;3.53;1.85;;;1.30;99.90;;;;;;5023438;28;20060;-55
2023/01/16 11:54:09;;;;;;;1.90;1.65;;;1.30;99.90;;;;;;5030284;28;20146;-55
2023/01/16 11:57:17;;;;;;;3.05;1.63;;;1.30;99.90;;;;;;5022921;28;20819;-52
2023/01/16 12:00:19;;;;;;;7.22;2.60;;;1.30;99.90;;;;;;4951125;28;20053;-55
2023/01/16 12:02:57;;;;;;;4.13;1.52;;;1.30;99.90;;;;;;5025600;28;20041;-55
2023/01/16 12:05:55;;;;;;;9.55;2.13;;;1.30;99.90;;;;;;5023555;28;20281;-56
2023/01/16 12:08:49;;;;;;;6.03;3.00;;;1.30;99.90;;;;;;5022249;28;20041;-55
2023/01/16 12:11:35;;;;;;;5.25;1.90;;;1.40;99.90;;;;;;5019844;28;20040;-55
2023/01/16 12:14:28;;;;;;;4.50;1.83;;;1.40;99.90;;;;;;5026399;28;20120;-55
2023/01/16 12:17:22;;;;;;;3.80;1.95;;;1.40;99.90;;;;;;5027539;28;20122;-55
2023/01/16 12:20:05;;;;;;;3.10;1.67;;;1.40;99.90;;;;;;5034930;28;20531;-55
2023/01/16 12:22:38;;;;;;;5.25;2.00;;;1.40;99.90;;;;;;5026827;28;20051;-55
2023/01/16 12:25:23;;;;;;;2.92;1.70;;;1.40;99.90;;;;;;5023808;28;20483;-54
2023/01/16 12:28:16;;;;;;;3.33;2.00;;;1.50;99.90;;;;;;5031287;28;20067;-54
2023/01/16 12:31:35;;;;;;;2.40;1.60;;;1.50;99.90;;;;;;5033700;28;20060;-55
2023/01/16 12:34:54;;;;;;;2.95;1.85;;;1.60;99.90;;;;;;5034129;28;20047;-54
2023/01/16 12:37:30;;;;;;;2.08;1.73;;;1.70;99.90;;;;;;4954757;28;20245;-54
2023/01/16 12:40:18;;;;;;;4.22;3.10;;;1.70;99.90;;;;;;4956133;28;20056;-55
2023/01/16 12:43:19;;;;;;;;;;;1.80;99.90;;;;;;5009134;28;20427;-54
2023/01/16 12:45:58;;;;;;;3.42;1.98;;;1.80;99.90;;;;;;5025598;28;19958;-55
2023/01/16 12:48:52;;;;;;;4.65;2.00;;;2.00;99.90;;;;;;5025231;28;20051;-54
2023/01/16 12:51:46;;;;;;;2.28;1.50;;;2.00;99.90;;;;;;5025524;28;20592;-54
2023/01/16 12:54:21;;;;;;;3.33;1.98;;;2.00;99.90;;;;;;5016143;28;20107;-55
2023/01/16 12:57:13;;;;;;;4.43;1.70;;;2.10;99.90;;;;;;5027769;28;20484;-55
2023/01/16 12:59:43;;;;;;;2.75;1.67;;;2.20;99.90;;;;;;5027019;28;20358;-55
2023/01/16 13:02:12;;;;;;;2.47;1.38;;;2.20;99.90;;;;;;5027001;28;20148;-54
2023/01/16 13:04:47;;;;;;;3.40;2.03;;;2.30;99.90;;;;;;5027825;28;20041;-56
2023/01/16 13:07:16;;;;;;;3.25;1.60;;;2.50;99.90;;;;;;5040463;28;20041;-53
2023/01/16 13:09:50;;;;;;;3.90;2.05;;;2.60;99.90;;;;;;5026582;28;20423;-54
2023/01/16 13:15:18;;;;;;;4.65;1.25;;;2.90;99.90;;;;;;5023624;28;20973;-53
2023/01/16 13:18:11;;;;;;;6.10;1.45;;;3.10;99.90;;;;;;5032713;28;20461;-54
2023/01/16 13:20:38;;;;;;;3.55;1.52;;;3.20;99.90;;;;;;5025813;28;20045;-53
2023/01/16 13:23:16;;;;;;;2.75;1.55;;;3.30;99.90;;;;;;5023703;28;20322;-52
2023/01/16 13:25:46;;;;;;;1.80;1.30;;;3.50;99.90;;;;;;5023910;28;20222;-52
2023/01/16 13:28:42;;;;;;;2.03;1.30;;;3.60;99.90;;;;;;5021089;28;20208;-52
2023/01/16 13:31:17;;;;;;;1.70;1.13;;;3.70;99.90;;;;;;5024616;28;20333;-54
2023/01/16 13:33:48;;;;;;;4.65;1.58;;;4.00;99.90;;;;;;5039707;28;20422;-52
2023/01/16 13:36:18;;;;;;;5.95;1.85;;;4.40;99.90;;;;;;5024817;28;20400;-54
2023/01/16 13:38:55;;;;;;;8.70;1.80;;;4.80;99.90;;;;;;5033372;28;20055;-53
2023/01/16 13:41:34;;;;;;;2.30;1.48;;;5.10;99.90;;;;;;5032089;28;20095;-53
2023/01/16 13:47:20;;;;;;;6.97;2.10;;;5.90;99.90;;;;;;5024732;28;20051;-54
2023/01/16 13:49:52;;;;;;;2.15;1.60;;;6.40;99.90;;;;;;5024025;28;20118;-53
2023/01/16 13:52:24;;;;;;;4.95;1.90;;;6.70;99.90;;;;;;5025994;28;20324;-53
2023/01/16 13:54:56;;;;;;;4.93;1.75;;;6.90;99.90;;;;;;5024667;28;20279;-52
2023/01/16 13:57:26;;;;;;;3.65;2.10;;;7.00;99.90;;;;;;5022231;28;20089;-49
2023/01/16 13:59:59;;;;;;;4.45;1.70;;;7.10;99.90;;;;;;5007816;28;20489;-52
2023/01/16 14:02:35;;;;;;;2.95;1.50;;;7.10;99.90;;;;;;5020586;28;20520;-53
2023/01/16 14:05:14;;;;;;;2.92;1.83;;;7.00;99.90;;;;;;5027760;28;20507;-55
2023/01/16 14:10:42;;;;;;;3.75;1.63;;;6.70;99.90;;;;;;5022949;28;20056;-55
2023/01/16 14:13:18;;;;;;;4.65;2.05;;;6.50;99.90;;;;;;5023424;28;20234;-53
2023/01/16 14:18:47;;;;;;;1.80;1.45;;;6.20;99.90;;;;;;5024264;28;20044;-52
2023/01/16 14:21:24;;;;;;;2.75;1.55;;;6.10;99.90;;;;;;5021532;28;20041;-51
2023/01/16 14:24:02;;;;;;;;;;;6.00;99.90;;;;;;5025651;28;20118;-53
2023/01/16 14:26:50;;;;;;;1.83;1.20;;;5.90;99.90;;;;;;5021623;28;20024;-53
2023/01/16 14:29:24;;;;;;;2.50;1.30;;;5.70;99.90;;;;;;5023065;28;20072;-54
2023/01/16 14:32:04;;;;;;;2.05;1.10;;;5.60;99.90;;;;;;5024780;28;20055;-53
2023/01/16 14:34:40;;;;;;;1.00;0.90;;;5.60;99.90;;;;;;5023919;28;20255;-53
2023/01/16 14:37:14;;;;;;;1.52;1.05;;;5.60;99.90;;;;;;5024164;28;20041;-53